Aviation Digital Data Service (ADDS)

Output produced by METARs form (1809 UTC 24 June 2019)
found at http://www.aviationweather.gov/metar/data/
 
Forecast for: SBBR (BRASILIA (CIV/MI, BR)
Text: TAF SBBR 241600Z 2418/2518 07010KT 9999 FEW035 TN14/2506Z TX25/2517Z
Forecast period: 1800 UTC 24 June 2019 to 0000 UTC 25 June 2019
Forecast type: FROM: standard forecast or significant change
Winds: from the ENE (70 degrees) at 12 MPH (10 knots; 5.1 m/s)
Visibility: 6 or more miles 10+ km)
Ceiling: at least 12,000 feet AGL
Clouds: few clouds at 3500 feet AGL
Weather: no significant weather forecast for this period
Text: BECMG 2500/2502 07005KT CAVOK
Forecast period: 0000 to 1200 UTC 25 June 2019
Forecast type: BECOMING: Conditions expected to become as follows by 0200 UTC 25 June 2019
Winds: from the ENE (70 degrees) at 6 MPH (5 knots; 2.6 m/s)
Visibility: 6 or more miles 10+ km)
Ceiling: unknown
Clouds: missing
Weather: NSW  (no significant weather)
Text: BECMG 2512/2514 09012KT 9999 SCT033 RMK PEM
Forecast period: 1200 to 1800 UTC 25 June 2019
Forecast type: BECOMING: Conditions expected to become as follows by 1400 UTC 25 June 2019
Winds: from the E (90 degrees) at 14 MPH (12 knots; 6.2 m/s)
Visibility: 6 or more miles 10+ km)
Ceiling: at least 12,000 feet AGL
Clouds: scattered clouds at 3300 feet AGL
Weather: NSW  (no significant weather)